Main page
METAR-TAF:

METAR-TAF

Airports :

Newcastle Airport

Newcastle upon Tyne, England

latitude: 55-02N, longitude: 001-42W, elevation: 81 m

Current weather observation

The report was made 26 minutes ago, at 21:50 UTC
Wind 3 kt from the West/Southwest
Temperature -2°C
Humidity 100%
Pressure 996 hPa
Visibility 10 km or more
no clouds below 1500 m and no cumulonimbus

METAR: EGNT 222150Z 25003KT CAVOK M02/M02 Q0996

Time: 22:16 (22:16 UTC)

Forecast

The report was made 5 hours and 11 minutes ago, at 17:05 UTC
Forecast valid from 22 at 18 UTC to 23 at 18 UTC
Wind 8 kt from the West
Visibility 10 km or more
no clouds below 1500 m and no cumulonimbus

TAF: EGNT 221705Z 2218/2318 26008KT CAVOK

Weather observations and forecasts of more than 4000 airports (METAR and TAF reports).

The available stations are represented by yellow and red dots on the map.

Hover mouse over dot to see the name of the station.

Then click to see weather observations and forecasts.

To change the map : click on the green buttons with a black cross to zoom in, on the green button with a dash to zoom out, or on the green arrows for adjacent maps.


METAR-TAF: